createdAt,value
2023-01-02T00:06:29.719Z,11.88
2023-01-02T00:14:04.101Z,11.91
2023-01-02T00:21:39.347Z,11.93
2023-01-02T00:29:13.173Z,11.85
2023-01-02T00:36:48.469Z,11.85
2023-01-02T00:44:22.429Z,11.84
2023-01-02T00:51:57.915Z,11.81
2023-01-02T00:59:31.846Z,11.80
2023-01-02T01:07:07.105Z,11.78
2023-01-02T01:14:41.154Z,11.74
2023-01-02T01:22:16.455Z,11.73
2023-01-02T01:29:50.420Z,11.74
2023-01-02T01:37:25.699Z,11.75
2023-01-02T01:44:59.732Z,11.73
2023-01-02T01:52:40.233Z,11.75
2023-01-02T02:00:14.987Z,11.73
2023-01-02T02:07:59.009Z,11.73
2023-01-02T02:15:46.160Z,11.75
2023-01-02T02:23:46.465Z,11.76
2023-01-02T02:31:30.139Z,11.93
2023-01-02T02:39:11.970Z,12.09
2023-01-02T02:46:54.732Z,12.16
2023-01-02T02:54:36.445Z,12.37
2023-01-02T03:02:16.454Z,12.58
2023-01-02T03:10:01.885Z,12.64
2023-01-02T03:17:46.184Z,12.56
2023-01-02T03:25:22.273Z,12.56
2023-01-02T03:33:01.242Z,12.71
2023-01-02T03:40:40.857Z,12.68
2023-01-02T03:48:25.622Z,12.60
2023-01-02T03:56:12.300Z,12.76
2023-01-02T04:03:53.631Z,12.78
2023-01-02T04:11:30.228Z,12.78
2023-01-02T04:19:12.222Z,12.83
2023-01-02T04:26:50.013Z,12.81
2023-01-02T04:34:29.219Z,12.75
2023-01-02T04:42:03.399Z,12.74
2023-01-02T04:49:38.714Z,12.79
2023-01-02T04:57:12.462Z,12.84
2023-01-02T05:04:47.733Z,12.90
2023-01-02T05:12:21.562Z,12.92
2023-01-02T05:19:57.370Z,12.95
2023-01-02T05:27:31.471Z,12.94
2023-01-02T05:35:07.584Z,12.96
2023-01-02T05:42:41.461Z,13.03
2023-01-02T05:50:16.975Z,13.01
2023-01-02T05:57:55.180Z,12.98
2023-01-02T06:05:30.451Z,13.12
2023-01-02T06:13:04.494Z,13.15
2023-01-02T06:20:40.906Z,13.14
2023-01-02T06:28:14.822Z,13.11
2023-01-02T06:35:57.617Z,13.14
2023-01-02T06:43:32.484Z,13.26
2023-01-02T06:51:09.087Z,13.23
2023-01-02T06:58:43.185Z,13.18
2023-01-02T07:06:20.435Z,13.18
2023-01-02T07:13:55.819Z,13.19
2023-01-02T07:21:31.750Z,13.18
2023-01-02T07:29:05.680Z,13.19
2023-01-02T07:36:40.897Z,13.44
2023-01-02T07:44:14.798Z,13.43
2023-01-02T07:51:50.092Z,13.52
2023-01-02T07:59:24.011Z,13.65
2023-01-02T08:06:59.596Z,13.83
2023-01-02T08:14:33.810Z,13.77
2023-01-02T08:22:09.850Z,13.90
2023-01-02T08:29:43.940Z,13.91
2023-01-02T08:37:19.306Z,13.89
2023-01-02T08:44:53.959Z,13.94
2023-01-02T08:52:29.243Z,14.07
2023-01-02T09:00:03.716Z,14.09
2023-01-02T09:07:39.147Z,14.18
2023-01-02T09:15:13.132Z,14.22
2023-01-02T09:22:48.717Z,14.23
2023-01-02T09:30:22.561Z,14.28
2023-01-02T09:37:57.837Z,14.40
2023-01-02T09:45:31.930Z,14.53
2023-01-02T09:53:07.316Z,14.57
2023-01-02T10:00:42.917Z,14.73
2023-01-02T10:08:32.255Z,14.76
2023-01-02T10:16:08.761Z,14.88
2023-01-02T10:23:53.901Z,15.02
2023-01-02T10:31:30.904Z,14.99
2023-01-02T10:39:08.118Z,14.98
2023-01-02T10:46:42.791Z,15.03
2023-01-02T10:54:18.207Z,15.06
2023-01-02T11:01:54.936Z,15.08
2023-01-02T11:09:31.648Z,15.04
2023-01-02T11:17:08.119Z,14.94
2023-01-02T11:25:00.655Z,14.85
2023-01-02T11:32:39.705Z,14.75
2023-01-02T11:40:27.479Z,14.73
2023-01-02T11:48:06.084Z,14.70
2023-01-02T11:55:46.227Z,14.75
2023-01-02T12:03:23.358Z,14.75
2023-01-02T12:11:06.575Z,14.70
2023-01-02T12:19:04.035Z,14.67
2023-01-02T12:26:48.547Z,14.68
2023-01-02T12:34:46.730Z,14.67
2023-01-02T12:42:36.878Z,14.69
2023-01-02T12:50:28.974Z,14.65
2023-01-02T12:58:08.555Z,14.53
2023-01-02T13:05:47.481Z,14.45
2023-01-02T13:13:26.761Z,14.50
2023-01-02T13:21:10.629Z,14.48
2023-01-02T13:28:56.133Z,14.46
2023-01-02T13:36:37.427Z,14.46
2023-01-02T13:44:12.904Z,14.54
2023-01-02T13:51:47.121Z,14.55
2023-01-02T13:59:43.116Z,14.59
2023-01-02T14:07:46.275Z,14.63
2023-01-02T14:15:25.192Z,14.71
2023-01-02T14:23:03.291Z,14.70
2023-01-02T14:30:41.587Z,14.70
2023-01-02T14:38:19.935Z,14.67
2023-01-02T14:46:00.229Z,14.69
2023-01-02T14:53:37.977Z,14.75
2023-01-02T15:01:42.469Z,14.73
2023-01-02T15:09:15.737Z,14.73
2023-01-02T15:16:54.658Z,14.72
2023-01-02T15:24:31.524Z,14.75
2023-01-02T15:32:19.874Z,14.67
2023-01-02T15:39:56.357Z,14.54
2023-01-02T15:47:31.959Z,14.41
2023-01-02T15:55:14.742Z,14.27
2023-01-02T16:02:50.140Z,14.14
2023-01-02T16:10:25.728Z,14.00
2023-01-02T16:18:01.806Z,13.88
2023-01-02T16:25:38.308Z,13.76
2023-01-02T16:33:24.689Z,13.62
2023-01-02T16:41:02.898Z,13.47
2023-01-02T16:48:40.570Z,13.34
2023-01-02T16:56:15.899Z,13.20
2023-01-02T17:03:51.262Z,12.80
2023-01-02T17:11:26.171Z,12.55
2023-01-02T17:19:01.439Z,12.35
2023-01-02T17:26:35.495Z,12.32
2023-01-02T17:34:11.455Z,12.10
2023-01-02T17:41:45.355Z,12.03
2023-01-02T17:49:21.229Z,12.04
2023-01-02T17:56:55.276Z,11.97
2023-01-02T18:04:30.586Z,11.98
2023-01-02T18:12:04.776Z,11.93
2023-01-02T18:19:40.211Z,11.88
2023-01-02T18:27:23.425Z,11.83
2023-01-02T18:35:04.021Z,11.78
2023-01-02T18:42:55.115Z,11.76
2023-01-02T18:50:33.853Z,11.72
2023-01-02T18:58:38.923Z,11.70
2023-01-02T19:06:22.643Z,11.65
2023-01-02T19:13:59.067Z,11.61
2023-01-02T19:21:35.814Z,11.47
2023-01-02T19:29:18.675Z,11.38
2023-01-02T19:36:59.796Z,11.31
2023-01-02T19:44:34.168Z,11.19
2023-01-02T19:52:11.064Z,11.12
2023-01-02T19:59:46.156Z,11.08
2023-01-02T20:07:22.176Z,11.05
2023-01-02T20:14:56.102Z,11.00
2023-01-02T20:22:32.309Z,10.88
2023-01-02T20:30:08.870Z,10.82
2023-01-02T20:37:44.435Z,10.79
2023-01-02T20:45:18.701Z,10.71
2023-01-02T20:52:57.043Z,10.71
2023-01-02T21:00:31.253Z,10.61
2023-01-02T21:08:07.121Z,10.54
2023-01-02T21:15:51.506Z,10.49
2023-01-02T21:23:28.696Z,10.48
2023-01-02T21:31:03.542Z,10.46
2023-01-02T21:38:40.048Z,10.31
2023-01-02T21:46:14.156Z,10.24
2023-01-02T21:53:49.593Z,10.24
2023-01-02T22:01:23.684Z,10.16
2023-01-02T22:08:59.199Z,10.09
2023-01-02T22:16:33.183Z,10.07
2023-01-02T22:24:09.747Z,10.05
2023-01-02T22:31:44.154Z,9.98
2023-01-02T22:39:29.025Z,9.95
2023-01-02T22:47:03.336Z,9.93
2023-01-02T22:54:38.786Z,9.88
2023-01-02T23:02:16.952Z,9.81
2023-01-02T23:09:52.330Z,9.78
2023-01-02T23:17:43.591Z,9.76
2023-01-02T23:25:19.106Z,9.74
2023-01-02T23:32:53.003Z,9.70
2023-01-02T23:40:33.955Z,9.67
2023-01-02T23:48:08.278Z,9.68
2023-01-02T23:55:43.777Z,9.67
